sensor_id;sensor_type;location;lat;lon;timestamp;temperature;humidity
73777;DHT22;62088;50.240;2.696;2023-06-22T00:00:15;20.10;69.70
73777;DHT22;62088;50.240;2.696;2023-06-22T00:02:42;20.10;69.70
73777;DHT22;62088;50.240;2.696;2023-06-22T00:05:09;20.00;69.80
73777;DHT22;62088;50.240;2.696;2023-06-22T00:07:36;20.00;69.90
73777;DHT22;62088;50.240;2.696;2023-06-22T00:10:04;19.90;69.90
73777;DHT22;62088;50.240;2.696;2023-06-22T00:12:31;19.90;69.90
73777;DHT22;62088;50.240;2.696;2023-06-22T00:14:59;19.90;70.00
73777;DHT22;62088;50.240;2.696;2023-06-22T00:17:26;19.90;70.00
73777;DHT22;62088;50.240;2.696;2023-06-22T00:19:53;19.90;70.00
73777;DHT22;62088;50.240;2.696;2023-06-22T00:22:22;19.90;70.00
73777;DHT22;62088;50.240;2.696;2023-06-22T00:24:56;19.90;70.10
73777;DHT22;62088;50.240;2.696;2023-06-22T00:27:23;19.80;70.20
73777;DHT22;62088;50.240;2.696;2023-06-22T00:29:50;19.80;70.20
73777;DHT22;62088;50.240;2.696;2023-06-22T00:32:18;19.70;70.30
73777;DHT22;62088;50.240;2.696;2023-06-22T00:34:47;19.70;70.40
73777;DHT22;62088;50.240;2.696;2023-06-22T00:37:14;19.70;70.40
73777;DHT22;62088;50.240;2.696;2023-06-22T00:39:42;19.70;70.50
73777;DHT22;62088;50.240;2.696;2023-06-22T00:42:10;19.60;70.60
73777;DHT22;62088;50.240;2.696;2023-06-22T00:44:37;19.60;70.90
73777;DHT22;62088;50.240;2.696;2023-06-22T00:47:05;19.60;71.00
73777;DHT22;62088;50.240;2.696;2023-06-22T00:49:33;19.50;71.10
73777;DHT22;62088;50.240;2.696;2023-06-22T00:52:00;19.50;71.20
73777;DHT22;62088;50.240;2.696;2023-06-22T00:54:28;19.50;71.40
73777;DHT22;62088;50.240;2.696;2023-06-22T00:56:55;19.40;71.50
73777;DHT22;62088;50.240;2.696;2023-06-22T00:59:24;19.50;71.60
73777;DHT22;62088;50.240;2.696;2023-06-22T01:01:53;19.50;71.70
73777;DHT22;62088;50.240;2.696;2023-06-22T01:04:23;19.40;71.70
73777;DHT22;62088;50.240;2.696;2023-06-22T01:06:56;19.40;71.80
73777;DHT22;62088;50.240;2.696;2023-06-22T01:09:32;19.40;71.70
73777;DHT22;62088;50.240;2.696;2023-06-22T01:12:04;19.40;71.70
73777;DHT22;62088;50.240;2.696;2023-06-22T01:14:43;19.40;71.80
73777;DHT22;62088;50.240;2.696;2023-06-22T01:17:15;19.40;71.80
73777;DHT22;62088;50.240;2.696;2023-06-22T01:19:51;19.40;71.80
73777;DHT22;62088;50.240;2.696;2023-06-22T01:22:30;19.40;71.90
73777;DHT22;62088;50.240;2.696;2023-06-22T01:25:20;19.40;71.90
73777;DHT22;62088;50.240;2.696;2023-06-22T01:28:10;19.40;71.80
73777;DHT22;62088;50.240;2.696;2023-06-22T01:30:45;19.40;71.90
73777;DHT22;62088;50.240;2.696;2023-06-22T01:33:14;19.30;71.90
73777;DHT22;62088;50.240;2.696;2023-06-22T01:35:42;19.30;71.90
73777;DHT22;62088;50.240;2.696;2023-06-22T01:38:10;19.30;71.80
73777;DHT22;62088;50.240;2.696;2023-06-22T01:40:38;19.30;71.90
73777;DHT22;62088;50.240;2.696;2023-06-22T01:43:06;19.20;72.00
73777;DHT22;62088;50.240;2.696;2023-06-22T01:45:35;19.20;72.10
73777;DHT22;62088;50.240;2.696;2023-06-22T01:48:02;19.20;72.10
73777;DHT22;62088;50.240;2.696;2023-06-22T01:50:30;19.20;72.20
73777;DHT22;62088;50.240;2.696;2023-06-22T01:52:58;19.10;72.30
73777;DHT22;62088;50.240;2.696;2023-06-22T01:55:25;19.10;72.30
73777;DHT22;62088;50.240;2.696;2023-06-22T01:57:53;19.10;72.40
73777;DHT22;62088;50.240;2.696;2023-06-22T02:00:21;19.00;72.50
73777;DHT22;62088;50.240;2.696;2023-06-22T02:02:56;19.00;72.60
73777;DHT22;62088;50.240;2.696;2023-06-22T02:05:27;19.00;72.60
73777;DHT22;62088;50.240;2.696;2023-06-22T02:08:25;19.00;72.60
73777;DHT22;62088;50.240;2.696;2023-06-22T02:10:54;19.00;72.60
73777;DHT22;62088;50.240;2.696;2023-06-22T02:13:24;18.90;72.60
73777;DHT22;62088;50.240;2.696;2023-06-22T02:15:51;18.90;72.60
73777;DHT22;62088;50.240;2.696;2023-06-22T02:18:19;18.90;72.60
73777;DHT22;62088;50.240;2.696;2023-06-22T02:20:47;18.90;72.60
73777;DHT22;62088;50.240;2.696;2023-06-22T02:23:14;18.90;72.70
73777;DHT22;62088;50.240;2.696;2023-06-22T02:25:41;18.90;72.70
73777;DHT22;62088;50.240;2.696;2023-06-22T02:28:11;18.80;72.80
73777;DHT22;62088;50.240;2.696;2023-06-22T02:30:38;18.80;72.90
73777;DHT22;62088;50.240;2.696;2023-06-22T02:33:06;18.80;72.90
73777;DHT22;62088;50.240;2.696;2023-06-22T02:35:33;18.80;73.00
73777;DHT22;62088;50.240;2.696;2023-06-22T02:38:03;18.80;73.00
73777;DHT22;62088;50.240;2.696;2023-06-22T02:40:31;18.80;73.00
73777;DHT22;62088;50.240;2.696;2023-06-22T02:42:58;18.80;73.00
73777;DHT22;62088;50.240;2.696;2023-06-22T02:45:29;18.70;73.10
73777;DHT22;62088;50.240;2.696;2023-06-22T02:47:56;18.80;73.10
73777;DHT22;62088;50.240;2.696;2023-06-22T02:50:24;18.80;73.20
73777;DHT22;62088;50.240;2.696;2023-06-22T02:52:53;18.70;73.20
73777;DHT22;62088;50.240;2.696;2023-06-22T02:55:20;18.70;73.10
73777;DHT22;62088;50.240;2.696;2023-06-22T02:57:53;18.80;73.10
73777;DHT22;62088;50.240;2.696;2023-06-22T03:00:21;18.70;73.10
73777;DHT22;62088;50.240;2.696;2023-06-22T03:02:49;18.70;73.10
73777;DHT22;62088;50.240;2.696;2023-06-22T03:05:17;18.70;73.20
73777;DHT22;62088;50.240;2.696;2023-06-22T03:07:46;18.70;73.30
73777;DHT22;62088;50.240;2.696;2023-06-22T03:10:14;18.70;73.30
73777;DHT22;62088;50.240;2.696;2023-06-22T03:12:43;18.70;73.30
73777;DHT22;62088;50.240;2.696;2023-06-22T03:15:11;18.70;73.50
73777;DHT22;62088;50.240;2.696;2023-06-22T03:17:40;18.60;73.60
73777;DHT22;62088;50.240;2.696;2023-06-22T03:20:09;18.70;73.80
73777;DHT22;62088;50.240;2.696;2023-06-22T03:22:39;18.70;73.90
73777;DHT22;62088;50.240;2.696;2023-06-22T03:25:07;18.70;74.00
73777;DHT22;62088;50.240;2.696;2023-06-22T03:27:42;18.70;74.10
73777;DHT22;62088;50.240;2.696;2023-06-22T03:30:11;18.70;74.10
73777;DHT22;62088;50.240;2.696;2023-06-22T03:32:39;18.70;74.20
73777;DHT22;62088;50.240;2.696;2023-06-22T03:35:06;18.70;74.20
73777;DHT22;62088;50.240;2.696;2023-06-22T03:37:36;18.80;74.30
73777;DHT22;62088;50.240;2.696;2023-06-22T03:40:03;18.80;74.40
73777;DHT22;62088;50.240;2.696;2023-06-22T03:42:34;18.80;74.40
73777;DHT22;62088;50.240;2.696;2023-06-22T03:45:04;18.80;74.50
73777;DHT22;62088;50.240;2.696;2023-06-22T03:47:32;18.80;74.60
73777;DHT22;62088;50.240;2.696;2023-06-22T03:50:00;18.80;74.60
73777;DHT22;62088;50.240;2.696;2023-06-22T03:52:27;18.80;74.70
73777;DHT22;62088;50.240;2.696;2023-06-22T03:54:54;18.80;74.80
73777;DHT22;62088;50.240;2.696;2023-06-22T03:57:21;18.80;74.80
73777;DHT22;62088;50.240;2.696;2023-06-22T03:59:48;18.80;74.90
73777;DHT22;62088;50.240;2.696;2023-06-22T04:02:15;18.70;74.90
73777;DHT22;62088;50.240;2.696;2023-06-22T04:04:42;18.80;75.00
73777;DHT22;62088;50.240;2.696;2023-06-22T04:07:10;18.80;75.00
73777;DHT22;62088;50.240;2.696;2023-06-22T04:09:37;18.80;75.00
73777;DHT22;62088;50.240;2.696;2023-06-22T04:12:04;18.80;75.10
73777;DHT22;62088;50.240;2.696;2023-06-22T04:14:31;18.80;75.10
73777;DHT22;62088;50.240;2.696;2023-06-22T04:16:58;18.80;75.20
73777;DHT22;62088;50.240;2.696;2023-06-22T04:19:25;18.70;75.20
73777;DHT22;62088;50.240;2.696;2023-06-22T04:21:53;18.80;75.20
73777;DHT22;62088;50.240;2.696;2023-06-22T04:24:20;18.70;75.20
73777;DHT22;62088;50.240;2.696;2023-06-22T04:26:47;18.70;75.30
73777;DHT22;62088;50.240;2.696;2023-06-22T04:29:14;18.70;75.30
73777;DHT22;62088;50.240;2.696;2023-06-22T04:31:41;18.70;75.30
73777;DHT22;62088;50.240;2.696;2023-06-22T04:34:09;18.70;75.40
73777;DHT22;62088;50.240;2.696;2023-06-22T04:36:38;18.70;75.40
73777;DHT22;62088;50.240;2.696;2023-06-22T04:39:11;18.70;75.50
73777;DHT22;62088;50.240;2.696;2023-06-22T04:41:39;18.70;75.50
73777;DHT22;62088;50.240;2.696;2023-06-22T04:44:10;18.60;75.50
73777;DHT22;62088;50.240;2.696;2023-06-22T04:46:38;18.70;75.60
73777;DHT22;62088;50.240;2.696;2023-06-22T04:49:09;18.70;75.60
73777;DHT22;62088;50.240;2.696;2023-06-22T04:51:40;18.70;75.60
73777;DHT22;62088;50.240;2.696;2023-06-22T04:54:09;18.70;75.70
73777;DHT22;62088;50.240;2.696;2023-06-22T04:56:36;18.70;75.70
73777;DHT22;62088;50.240;2.696;2023-06-22T04:59:03;18.70;75.70
73777;DHT22;62088;50.240;2.696;2023-06-22T05:01:30;18.70;75.70
73777;DHT22;62088;50.240;2.696;2023-06-22T05:03:58;18.70;75.70
73777;DHT22;62088;50.240;2.696;2023-06-22T05:06:28;18.70;75.70
73777;DHT22;62088;50.240;2.696;2023-06-22T05:08:56;18.70;75.80
73777;DHT22;62088;50.240;2.696;2023-06-22T05:11:27;18.70;75.80
73777;DHT22;62088;50.240;2.696;2023-06-22T05:13:54;18.70;75.90
73777;DHT22;62088;50.240;2.696;2023-06-22T05:16:24;18.70;75.90
73777;DHT22;62088;50.240;2.696;2023-06-22T05:18:55;18.70;76.00
73777;DHT22;62088;50.240;2.696;2023-06-22T05:21:23;18.80;76.10
73777;DHT22;62088;50.240;2.696;2023-06-22T05:23:51;18.70;76.20
73777;DHT22;62088;50.240;2.696;2023-06-22T05:26:20;18.80;76.20
73777;DHT22;62088;50.240;2.696;2023-06-22T05:28:47;18.70;76.30
73777;DHT22;62088;50.240;2.696;2023-06-22T05:31:15;18.80;76.40
73777;DHT22;62088;50.240;2.696;2023-06-22T05:33:43;18.80;76.40
73777;DHT22;62088;50.240;2.696;2023-06-22T05:36:11;18.80;76.40
73777;DHT22;62088;50.240;2.696;2023-06-22T05:38:40;18.80;76.40
73777;DHT22;62088;50.240;2.696;2023-06-22T05:41:07;18.80;76.40
73777;DHT22;62088;50.240;2.696;2023-06-22T05:43:35;18.90;76.40
73777;DHT22;62088;50.240;2.696;2023-06-22T05:46:02;18.90;76.30
73777;DHT22;62088;50.240;2.696;2023-06-22T05:48:29;18.90;76.30
73777;DHT22;62088;50.240;2.696;2023-06-22T05:50:56;18.90;76.40
73777;DHT22;62088;50.240;2.696;2023-06-22T05:53:24;18.90;76.30
73777;DHT22;62088;50.240;2.696;2023-06-22T05:55:51;19.00;76.30
73777;DHT22;62088;50.240;2.696;2023-06-22T05:58:18;19.00;76.30
73777;DHT22;62088;50.240;2.696;2023-06-22T06:00:45;19.00;76.20
73777;DHT22;62088;50.240;2.696;2023-06-22T06:03:13;19.10;76.20
73777;DHT22;62088;50.240;2.696;2023-06-22T06:05:44;19.10;76.20
73777;DHT22;62088;50.240;2.696;2023-06-22T06:08:12;19.10;76.30
73777;DHT22;62088;50.240;2.696;2023-06-22T06:10:39;19.20;76.20
73777;DHT22;62088;50.240;2.696;2023-06-22T06:13:06;19.20;76.20
73777;DHT22;62088;50.240;2.696;2023-06-22T06:15:34;19.20;76.20
73777;DHT22;62088;50.240;2.696;2023-06-22T06:18:01;19.30;76.10
73777;DHT22;62088;50.240;2.696;2023-06-22T06:20:31;19.30;76.10
73777;DHT22;62088;50.240;2.696;2023-06-22T06:22:59;19.30;76.10
73777;DHT22;62088;50.240;2.696;2023-06-22T06:25:26;19.30;76.00
73777;DHT22;62088;50.240;2.696;2023-06-22T06:27:53;19.30;75.90
73777;DHT22;62088;50.240;2.696;2023-06-22T06:30:23;19.30;75.90
73777;DHT22;62088;50.240;2.696;2023-06-22T06:32:50;19.40;75.80
73777;DHT22;62088;50.240;2.696;2023-06-22T06:35:18;19.40;75.70
73777;DHT22;62088;50.240;2.696;2023-06-22T06:37:47;19.40;75.60
73777;DHT22;62088;50.240;2.696;2023-06-22T06:40:16;19.40;75.40
73777;DHT22;62088;50.240;2.696;2023-06-22T06:42:48;19.40;75.40
73777;DHT22;62088;50.240;2.696;2023-06-22T06:45:21;19.40;75.20
73777;DHT22;62088;50.240;2.696;2023-06-22T06:47:52;19.50;75.20
73777;DHT22;62088;50.240;2.696;2023-06-22T06:50:19;19.50;75.20
73777;DHT22;62088;50.240;2.696;2023-06-22T06:52:47;19.50;75.10
73777;DHT22;62088;50.240;2.696;2023-06-22T06:55:14;19.50;75.10
73777;DHT22;62088;50.240;2.696;2023-06-22T06:57:42;19.60;75.00
73777;DHT22;62088;50.240;2.696;2023-06-22T07:00:11;19.60;74.90
73777;DHT22;62088;50.240;2.696;2023-06-22T07:02:45;19.60;74.80
73777;DHT22;62088;50.240;2.696;2023-06-22T07:05:14;19.70;74.80
73777;DHT22;62088;50.240;2.696;2023-06-22T07:07:41;19.60;74.70
73777;DHT22;62088;50.240;2.696;2023-06-22T07:10:10;19.70;74.70
73777;DHT22;62088;50.240;2.696;2023-06-22T07:12:37;19.70;74.60
73777;DHT22;62088;50.240;2.696;2023-06-22T07:15:06;19.70;74.50
73777;DHT22;62088;50.240;2.696;2023-06-22T07:17:37;19.70;74.40
73777;DHT22;62088;50.240;2.696;2023-06-22T07:20:07;19.80;74.20
73777;DHT22;62088;50.240;2.696;2023-06-22T07:22:40;19.80;74.00
73777;DHT22;62088;50.240;2.696;2023-06-22T07:25:08;19.80;73.90
73777;DHT22;62088;50.240;2.696;2023-06-22T07:27:56;19.80;73.90
73777;DHT22;62088;50.240;2.696;2023-06-22T07:30:24;19.80;73.80
73777;DHT22;62088;50.240;2.696;2023-06-22T07:32:51;19.90;73.70
73777;DHT22;62088;50.240;2.696;2023-06-22T07:35:18;19.90;73.60
73777;DHT22;62088;50.240;2.696;2023-06-22T07:37:46;19.90;73.60
73777;DHT22;62088;50.240;2.696;2023-06-22T07:40:13;19.90;73.50
73777;DHT22;62088;50.240;2.696;2023-06-22T07:42:40;19.90;73.40
73777;DHT22;62088;50.240;2.696;2023-06-22T07:45:07;19.90;73.50
73777;DHT22;62088;50.240;2.696;2023-06-22T07:47:35;19.90;73.40
73777;DHT22;62088;50.240;2.696;2023-06-22T07:50:03;19.90;73.40
73777;DHT22;62088;50.240;2.696;2023-06-22T07:52:30;19.90;73.40
73777;DHT22;62088;50.240;2.696;2023-06-22T07:54:58;20.00;73.20
73777;DHT22;62088;50.240;2.696;2023-06-22T07:57:25;20.00;73.20
73777;DHT22;62088;50.240;2.696;2023-06-22T08:00:05;19.90;73.10
73777;DHT22;62088;50.240;2.696;2023-06-22T08:02:40;19.90;73.10
73777;DHT22;62088;50.240;2.696;2023-06-22T08:05:09;19.90;73.00
73777;DHT22;62088;50.240;2.696;2023-06-22T08:07:47;20.00;72.90
73777;DHT22;62088;50.240;2.696;2023-06-22T08:10:15;20.00;72.70
73777;DHT22;62088;50.240;2.696;2023-06-22T08:12:43;20.00;72.60
73777;DHT22;62088;50.240;2.696;2023-06-22T08:15:10;20.10;72.60
73777;DHT22;62088;50.240;2.696;2023-06-22T08:17:38;20.00;72.60
73777;DHT22;62088;50.240;2.696;2023-06-22T08:20:07;20.00;72.70
73777;DHT22;62088;50.240;2.696;2023-06-22T08:22:39;20.10;72.70
73777;DHT22;62088;50.240;2.696;2023-06-22T08:25:07;20.10;72.70
73777;DHT22;62088;50.240;2.696;2023-06-22T08:27:34;20.10;72.80
73777;DHT22;62088;50.240;2.696;2023-06-22T08:30:02;20.10;72.80
73777;DHT22;62088;50.240;2.696;2023-06-22T08:32:30;20.10;72.80
73777;DHT22;62088;50.240;2.696;2023-06-22T08:34:57;20.10;72.80
73777;DHT22;62088;50.240;2.696;2023-06-22T08:37:24;20.10;72.80
73777;DHT22;62088;50.240;2.696;2023-06-22T08:40:02;20.10;72.80
73777;DHT22;62088;50.240;2.696;2023-06-22T08:42:37;20.10;72.80
73777;DHT22;62088;50.240;2.696;2023-06-22T08:45:05;20.10;72.90
73777;DHT22;62088;50.240;2.696;2023-06-22T08:47:32;20.10;72.90
73777;DHT22;62088;50.240;2.696;2023-06-22T08:49:59;20.00;72.90
73777;DHT22;62088;50.240;2.696;2023-06-22T08:52:29;20.00;73.00
73777;DHT22;62088;50.240;2.696;2023-06-22T08:54:56;20.00;73.10
73777;DHT22;62088;50.240;2.696;2023-06-22T08:57:25;20.00;73.10
73777;DHT22;62088;50.240;2.696;2023-06-22T08:59:52;20.10;73.10
73777;DHT22;62088;50.240;2.696;2023-06-22T09:02:19;20.00;73.10
73777;DHT22;62088;50.240;2.696;2023-06-22T09:04:47;20.10;73.10
73777;DHT22;62088;50.240;2.696;2023-06-22T09:07:14;20.10;73.20
73777;DHT22;62088;50.240;2.696;2023-06-22T09:09:41;20.10;73.30
73777;DHT22;62088;50.240;2.696;2023-06-22T09:12:09;20.10;73.40
73777;DHT22;62088;50.240;2.696;2023-06-22T09:14:36;20.10;73.40
73777;DHT22;62088;50.240;2.696;2023-06-22T09:17:03;20.10;73.50
73777;DHT22;62088;50.240;2.696;2023-06-22T09:19:30;20.10;73.60
73777;DHT22;62088;50.240;2.696;2023-06-22T09:21:57;20.10;73.70
73777;DHT22;62088;50.240;2.696;2023-06-22T09:24:25;20.10;73.90
73777;DHT22;62088;50.240;2.696;2023-06-22T09:26:52;20.10;74.00
73777;DHT22;62088;50.240;2.696;2023-06-22T09:29:19;20.10;74.10
73777;DHT22;62088;50.240;2.696;2023-06-22T09:31:46;20.10;74.30
73777;DHT22;62088;50.240;2.696;2023-06-22T09:34:13;20.00;74.40
73777;DHT22;62088;50.240;2.696;2023-06-22T09:36:41;20.00;74.60
73777;DHT22;62088;50.240;2.696;2023-06-22T09:39:08;20.10;74.70
73777;DHT22;62088;50.240;2.696;2023-06-22T09:41:35;20.00;74.70
73777;DHT22;62088;50.240;2.696;2023-06-22T09:44:02;20.00;74.80
73777;DHT22;62088;50.240;2.696;2023-06-22T09:46:29;20.00;75.00
73777;DHT22;62088;50.240;2.696;2023-06-22T09:48:56;20.00;75.10
73777;DHT22;62088;50.240;2.696;2023-06-22T09:51:23;20.00;75.20
73777;DHT22;62088;50.240;2.696;2023-06-22T09:53:51;19.90;75.30
73777;DHT22;62088;50.240;2.696;2023-06-22T09:56:19;19.90;75.30
73777;DHT22;62088;50.240;2.696;2023-06-22T09:58:46;19.90;75.40
73777;DHT22;62088;50.240;2.696;2023-06-22T10:01:13;19.90;75.50
73777;DHT22;62088;50.240;2.696;2023-06-22T10:03:44;19.90;75.60
73777;DHT22;62088;50.240;2.696;2023-06-22T10:06:11;19.90;75.80
73777;DHT22;62088;50.240;2.696;2023-06-22T10:08:38;19.90;75.90
73777;DHT22;62088;50.240;2.696;2023-06-22T10:11:07;19.90;76.10
73777;DHT22;62088;50.240;2.696;2023-06-22T10:13:34;19.90;76.20
73777;DHT22;62088;50.240;2.696;2023-06-22T10:16:01;19.90;76.30
73777;DHT22;62088;50.240;2.696;2023-06-22T10:18:28;19.90;76.40
73777;DHT22;62088;50.240;2.696;2023-06-22T10:20:57;19.90;76.50
73777;DHT22;62088;50.240;2.696;2023-06-22T10:23:24;19.90;76.50
73777;DHT22;62088;50.240;2.696;2023-06-22T10:25:51;19.90;76.60
73777;DHT22;62088;50.240;2.696;2023-06-22T10:28:18;19.90;76.70
73777;DHT22;62088;50.240;2.696;2023-06-22T10:30:45;19.90;76.70
73777;DHT22;62088;50.240;2.696;2023-06-22T10:33:13;19.90;76.80
73777;DHT22;62088;50.240;2.696;2023-06-22T10:35:40;19.90;76.90
73777;DHT22;62088;50.240;2.696;2023-06-22T10:38:07;19.90;77.00
73777;DHT22;62088;50.240;2.696;2023-06-22T10:40:35;19.90;77.20
73777;DHT22;62088;50.240;2.696;2023-06-22T10:43:02;19.80;77.20
73777;DHT22;62088;50.240;2.696;2023-06-22T10:45:29;19.80;77.30
73777;DHT22;62088;50.240;2.696;2023-06-22T10:47:57;19.80;77.40
73777;DHT22;62088;50.240;2.696;2023-06-22T10:50:25;19.80;77.40
73777;DHT22;62088;50.240;2.696;2023-06-22T10:52:53;19.80;77.40
73777;DHT22;62088;50.240;2.696;2023-06-22T10:55:22;19.80;77.50
73777;DHT22;62088;50.240;2.696;2023-06-22T10:58:00;19.70;77.60
73777;DHT22;62088;50.240;2.696;2023-06-22T11:00:27;19.80;77.70
73777;DHT22;62088;50.240;2.696;2023-06-22T11:02:55;19.80;77.80
73777;DHT22;62088;50.240;2.696;2023-06-22T11:05:22;19.70;77.80
73777;DHT22;62088;50.240;2.696;2023-06-22T11:07:49;19.70;78.00
73777;DHT22;62088;50.240;2.696;2023-06-22T11:10:16;19.80;78.00
73777;DHT22;62088;50.240;2.696;2023-06-22T11:12:44;19.80;78.10
73777;DHT22;62088;50.240;2.696;2023-06-22T11:15:11;19.80;78.10
73777;DHT22;62088;50.240;2.696;2023-06-22T11:17:38;19.80;78.20
73777;DHT22;62088;50.240;2.696;2023-06-22T11:20:06;19.80;78.20
73777;DHT22;62088;50.240;2.696;2023-06-22T11:22:40;19.80;78.30
73777;DHT22;62088;50.240;2.696;2023-06-22T11:25:08;19.80;78.40
73777;DHT22;62088;50.240;2.696;2023-06-22T11:27:35;19.80;78.40
73777;DHT22;62088;50.240;2.696;2023-06-22T11:30:03;19.80;78.50
73777;DHT22;62088;50.240;2.696;2023-06-22T11:32:30;19.80;78.50
73777;DHT22;62088;50.240;2.696;2023-06-22T11:34:58;19.90;78.60
73777;DHT22;62088;50.240;2.696;2023-06-22T11:37:25;19.90;78.70
73777;DHT22;62088;50.240;2.696;2023-06-22T11:39:52;19.90;78.70
73777;DHT22;62088;50.240;2.696;2023-06-22T11:42:33;19.90;78.60
73777;DHT22;62088;50.240;2.696;2023-06-22T11:45:01;19.90;78.50
73777;DHT22;62088;50.240;2.696;2023-06-22T11:47:29;19.90;78.50
73777;DHT22;62088;50.240;2.696;2023-06-22T11:49:56;19.90;78.60
73777;DHT22;62088;50.240;2.696;2023-06-22T11:52:23;19.90;78.70
73777;DHT22;62088;50.240;2.696;2023-06-22T11:54:50;19.90;78.90
73777;DHT22;62088;50.240;2.696;2023-06-22T11:57:17;19.90;78.90
73777;DHT22;62088;50.240;2.696;2023-06-22T11:59:44;19.90;79.10
73777;DHT22;62088;50.240;2.696;2023-06-22T12:02:11;19.90;79.20
73777;DHT22;62088;50.240;2.696;2023-06-22T12:04:38;20.00;79.40
73777;DHT22;62088;50.240;2.696;2023-06-22T12:07:05;20.00;79.50
73777;DHT22;62088;50.240;2.696;2023-06-22T12:09:32;20.10;79.60
73777;DHT22;62088;50.240;2.696;2023-06-22T12:11:59;20.10;79.70
73777;DHT22;62088;50.240;2.696;2023-06-22T12:14:27;20.20;79.70
73777;DHT22;62088;50.240;2.696;2023-06-22T12:16:56;20.20;79.70
73777;DHT22;62088;50.240;2.696;2023-06-22T12:19:23;20.30;79.70
73777;DHT22;62088;50.240;2.696;2023-06-22T12:21:50;20.30;79.80
73777;DHT22;62088;50.240;2.696;2023-06-22T12:24:17;20.30;79.80
73777;DHT22;62088;50.240;2.696;2023-06-22T12:26:44;20.40;79.90
73777;DHT22;62088;50.240;2.696;2023-06-22T12:29:11;20.40;80.00
73777;DHT22;62088;50.240;2.696;2023-06-22T12:31:39;20.40;79.90
73777;DHT22;62088;50.240;2.696;2023-06-22T12:34:06;20.40;79.80
73777;DHT22;62088;50.240;2.696;2023-06-22T12:36:33;20.50;79.70
73777;DHT22;62088;50.240;2.696;2023-06-22T12:39:00;20.60;79.70
73777;DHT22;62088;50.240;2.696;2023-06-22T12:41:28;20.60;79.60
73777;DHT22;62088;50.240;2.696;2023-06-22T12:43:55;20.70;79.70
73777;DHT22;62088;50.240;2.696;2023-06-22T12:46:22;20.80;79.80
73777;DHT22;62088;50.240;2.696;2023-06-22T12:48:49;20.80;79.90
73777;DHT22;62088;50.240;2.696;2023-06-22T12:51:22;20.90;79.80
73777;DHT22;62088;50.240;2.696;2023-06-22T12:53:50;20.90;79.70
73777;DHT22;62088;50.240;2.696;2023-06-22T12:56:17;21.00;79.80
73777;DHT22;62088;50.240;2.696;2023-06-22T12:58:44;21.10;79.80
73777;DHT22;62088;50.240;2.696;2023-06-22T13:01:11;21.10;79.80
73777;DHT22;62088;50.240;2.696;2023-06-22T13:03:38;21.20;79.60
73777;DHT22;62088;50.240;2.696;2023-06-22T13:06:06;21.30;79.50
73777;DHT22;62088;50.240;2.696;2023-06-22T13:08:33;21.30;79.60
73777;DHT22;62088;50.240;2.696;2023-06-22T13:11:20;21.40;79.50
73777;DHT22;62088;50.240;2.696;2023-06-22T13:13:47;21.50;79.40
73777;DHT22;62088;50.240;2.696;2023-06-22T13:16:14;21.50;79.10
73777;DHT22;62088;50.240;2.696;2023-06-22T13:18:41;21.60;78.90
73777;DHT22;62088;50.240;2.696;2023-06-22T13:21:08;21.70;78.90
73777;DHT22;62088;50.240;2.696;2023-06-22T13:23:35;21.80;78.90
73777;DHT22;62088;50.240;2.696;2023-06-22T13:26:02;21.90;78.50
73777;DHT22;62088;50.240;2.696;2023-06-22T13:28:29;22.00;78.30
73777;DHT22;62088;50.240;2.696;2023-06-22T13:30:57;22.10;78.30
73777;DHT22;62088;50.240;2.696;2023-06-22T13:33:24;22.30;78.00
73777;DHT22;62088;50.240;2.696;2023-06-22T13:35:51;22.40;77.20
73777;DHT22;62088;50.240;2.696;2023-06-22T13:38:18;22.40;76.70
73777;DHT22;62088;50.240;2.696;2023-06-22T13:40:45;22.50;75.60
73777;DHT22;62088;50.240;2.696;2023-06-22T13:43:14;22.60;75.00
73777;DHT22;62088;50.240;2.696;2023-06-22T13:45:42;22.70;74.90
73777;DHT22;62088;50.240;2.696;2023-06-22T13:48:10;22.70;74.60
73777;DHT22;62088;50.240;2.696;2023-06-22T13:50:37;22.80;74.40
73777;DHT22;62088;50.240;2.696;2023-06-22T13:53:04;22.90;74.10
73777;DHT22;62088;50.240;2.696;2023-06-22T13:55:31;22.90;73.30
73777;DHT22;62088;50.240;2.696;2023-06-22T13:57:58;22.90;72.70
73777;DHT22;62088;50.240;2.696;2023-06-22T14:00:25;23.00;72.60
73777;DHT22;62088;50.240;2.696;2023-06-22T14:02:55;23.10;72.70
73777;DHT22;62088;50.240;2.696;2023-06-22T14:05:22;23.20;72.90
73777;DHT22;62088;50.240;2.696;2023-06-22T14:07:49;23.30;72.60
73777;DHT22;62088;50.240;2.696;2023-06-22T14:10:16;23.30;72.00
73777;DHT22;62088;50.240;2.696;2023-06-22T14:12:43;23.40;71.40
73777;DHT22;62088;50.240;2.696;2023-06-22T14:15:11;23.50;71.10
73777;DHT22;62088;50.240;2.696;2023-06-22T14:17:38;23.50;70.90
73777;DHT22;62088;50.240;2.696;2023-06-22T14:20:06;23.60;70.70
73777;DHT22;62088;50.240;2.696;2023-06-22T14:22:35;23.70;70.10
73777;DHT22;62088;50.240;2.696;2023-06-22T14:25:04;23.70;69.70
73777;DHT22;62088;50.240;2.696;2023-06-22T14:27:31;23.80;69.40
73777;DHT22;62088;50.240;2.696;2023-06-22T14:29:58;23.80;69.30
73777;DHT22;62088;50.240;2.696;2023-06-22T14:32:27;23.90;68.80
73777;DHT22;62088;50.240;2.696;2023-06-22T14:34:56;23.90;68.60
73777;DHT22;62088;50.240;2.696;2023-06-22T14:37:23;23.90;68.10
73777;DHT22;62088;50.240;2.696;2023-06-22T14:39:50;24.00;67.90
73777;DHT22;62088;50.240;2.696;2023-06-22T14:42:18;24.10;67.30
73777;DHT22;62088;50.240;2.696;2023-06-22T14:44:45;24.10;66.50
73777;DHT22;62088;50.240;2.696;2023-06-22T14:47:12;24.20;66.30
73777;DHT22;62088;50.240;2.696;2023-06-22T14:49:39;24.20;66.40
73777;DHT22;62088;50.240;2.696;2023-06-22T14:52:08;24.20;66.20
73777;DHT22;62088;50.240;2.696;2023-06-22T14:54:35;24.20;65.90
73777;DHT22;62088;50.240;2.696;2023-06-22T14:57:02;24.20;65.40
73777;DHT22;62088;50.240;2.696;2023-06-22T14:59:29;24.20;65.30
73777;DHT22;62088;50.240;2.696;2023-06-22T15:01:56;24.20;65.30
73777;DHT22;62088;50.240;2.696;2023-06-22T15:04:23;24.20;65.00
73777;DHT22;62088;50.240;2.696;2023-06-22T15:06:50;24.20;64.90
73777;DHT22;62088;50.240;2.696;2023-06-22T15:09:17;24.20;64.40
73777;DHT22;62088;50.240;2.696;2023-06-22T15:11:44;24.10;64.20
73777;DHT22;62088;50.240;2.696;2023-06-22T15:14:13;24.10;64.00
73777;DHT22;62088;50.240;2.696;2023-06-22T15:16:41;24.10;64.30
73777;DHT22;62088;50.240;2.696;2023-06-22T15:19:08;24.10;64.70
73777;DHT22;62088;50.240;2.696;2023-06-22T15:21:36;24.00;64.80
73777;DHT22;62088;50.240;2.696;2023-06-22T15:24:03;24.00;64.90
73777;DHT22;62088;50.240;2.696;2023-06-22T15:26:30;24.00;65.10
73777;DHT22;62088;50.240;2.696;2023-06-22T15:28:57;23.90;65.10
73777;DHT22;62088;50.240;2.696;2023-06-22T15:31:26;23.90;64.90
73777;DHT22;62088;50.240;2.696;2023-06-22T15:33:53;23.90;65.00
73777;DHT22;62088;50.240;2.696;2023-06-22T15:36:20;23.80;65.00